Preview an experimental upcoming version of this site at Beta.AviationWeather.gov

Impacts TAF Board
For situational awareness. Not to be used for flight planning purposes.
IDs:

KMEM - Memphis Intl, TN, US

Issued at 1123 UTC 28 Sep 2023
Updated at 1127 UTC 28 Sep 2023
Potential Impact None Slight Moderate High
Time1054Z 28/12Z 28/13Z 28/14Z 28/15Z 28/16Z 28/17Z 28/18Z 28/19Z 28/20Z 28/21Z 28/22Z 28/23Z 29/00Z>>
Type OBS PRVL PRVL PRVL PRVL PRVL PRVL PRVL PRVL PRVL PRVL PRVL PRVL PRVL
VIS 10 >6 >6 >6 >6 >6 >6 >6 >6 >6 >6 >6 >6 >6
CIG -- -- -- -- -- -- -- -- -- -- -- -- -- --
Cover CLR FEW FEW FEW FEW FEW FEW FEW FEW FEW FEW FEW FEW FEW
FltCat VFR VFR VFR VFR VFR VFR VFR VFR VFR VFR VFR VFR VFR VFR
WX -- -- -- -- -- -- -- -- -- -- -- -- -- --
WDir 180 190 190 190 190 190 190 190 190 190 190 190 190 190
WSpd 7 7 7 7 7 7 7 7 7 7 7 7 7 7
WGst -- -- -- -- -- -- -- -- -- -- -- -- -- --
WSHgt -- -- -- -- -- -- -- -- -- -- -- -- -- --
WSDir -- -- -- -- -- -- -- -- -- -- -- -- -- --
WSSpd -- -- -- -- -- -- -- -- -- -- -- -- -- --

NOTE: LAMP data beyond the time of the TAF data is denoted as LAMP in Type and colored magenta.

Raw TAF
KMEM 281123Z 2812/2918 19007KT P6SM FEW070
  FM290200 17005KT P6SM SKC
  FM291500 20006KT P6SM FEW060


Raw METAR
KMEM 281054Z 18007KT 10SM CLR 22/19 A3003 RMK AO2 SLP165 T02220189 $
KMEM 280954Z 17007KT 10SM CLR 22/19 A3002 RMK AO2 SLP162 T02220189 $
KMEM 280854Z 18009KT 10SM CLR 23/19 A3001 RMK AO2 SLP158 T02280189 50006 $

METAR Board
Radar Display
Forecast Discussion

For situational awareness. Not to be used for flight planning purposes.